sensor_id;sensor_type;location;lat;lon;timestamp;temperature;humidity
26186;DHT22;20067;48.764;9.176;2022-09-24T00:01:27;13.30;91.30
26186;DHT22;20067;48.764;9.176;2022-09-24T00:03:55;13.40;91.30
26186;DHT22;20067;48.764;9.176;2022-09-24T00:06:21;13.40;91.30
26186;DHT22;20067;48.764;9.176;2022-09-24T00:08:51;13.40;91.30
26186;DHT22;20067;48.764;9.176;2022-09-24T00:11:17;13.30;91.30
26186;DHT22;20067;48.764;9.176;2022-09-24T00:13:46;13.30;91.30
26186;DHT22;20067;48.764;9.176;2022-09-24T00:16:14;13.40;91.30
26186;DHT22;20067;48.764;9.176;2022-09-24T00:18:40;13.40;91.30
26186;DHT22;20067;48.764;9.176;2022-09-24T00:21:24;13.30;91.30
26186;DHT22;20067;48.764;9.176;2022-09-24T00:23:53;13.30;91.30
26186;DHT22;20067;48.764;9.176;2022-09-24T00:26:20;13.30;91.30
26186;DHT22;20067;48.764;9.176;2022-09-24T00:29:05;13.40;91.30
26186;DHT22;20067;48.764;9.176;2022-09-24T00:31:31;13.40;91.30
26186;DHT22;20067;48.764;9.176;2022-09-24T00:33:57;13.30;91.30
26186;DHT22;20067;48.764;9.176;2022-09-24T00:36:24;13.30;91.30
26186;DHT22;20067;48.764;9.176;2022-09-24T00:38:51;13.30;91.30
26186;DHT22;20067;48.764;9.176;2022-09-24T00:41:19;13.30;91.30
26186;DHT22;20067;48.764;9.176;2022-09-24T00:43:46;13.20;91.30
26186;DHT22;20067;48.764;9.176;2022-09-24T00:48:45;13.20;91.30
26186;DHT22;20067;48.764;9.176;2022-09-24T00:51:16;13.20;91.30
26186;DHT22;20067;48.764;9.176;2022-09-24T00:53:45;13.30;91.30
26186;DHT22;20067;48.764;9.176;2022-09-24T00:56:13;13.30;91.30
26186;DHT22;20067;48.764;9.176;2022-09-24T00:58:42;13.30;91.30
26186;DHT22;20067;48.764;9.176;2022-09-24T01:01:10;13.40;91.30
26186;DHT22;20067;48.764;9.176;2022-09-24T01:03:37;13.40;91.30
26186;DHT22;20067;48.764;9.176;2022-09-24T01:06:06;13.20;91.30
26186;DHT22;20067;48.764;9.176;2022-09-24T01:08:32;13.20;91.30
26186;DHT22;20067;48.764;9.176;2022-09-24T01:11:28;13.10;91.30
26186;DHT22;20067;48.764;9.176;2022-09-24T01:30:21;12.90;91.30
26186;DHT22;20067;48.764;9.176;2022-09-24T01:32:53;12.90;91.30
26186;DHT22;20067;48.764;9.176;2022-09-24T01:35:35;12.90;91.30
26186;DHT22;20067;48.764;9.176;2022-09-24T01:38:08;12.90;91.30
26186;DHT22;20067;48.764;9.176;2022-09-24T01:40:36;12.80;91.30
26186;DHT22;20067;48.764;9.176;2022-09-24T01:43:04;12.90;91.30
26186;DHT22;20067;48.764;9.176;2022-09-24T01:45:30;12.90;91.30
26186;DHT22;20067;48.764;9.176;2022-09-24T01:48:00;12.80;91.30
26186;DHT22;20067;48.764;9.176;2022-09-24T01:50:29;12.80;91.30
26186;DHT22;20067;48.764;9.176;2022-09-24T01:53:12;12.80;91.30
26186;DHT22;20067;48.764;9.176;2022-09-24T01:55:47;12.80;91.30
26186;DHT22;20067;48.764;9.176;2022-09-24T01:58:26;12.80;91.30
26186;DHT22;20067;48.764;9.176;2022-09-24T02:01:00;12.80;91.30
26186;DHT22;20067;48.764;9.176;2022-09-24T02:03:31;12.70;91.30
26186;DHT22;20067;48.764;9.176;2022-09-24T02:06:17;12.70;91.30
26186;DHT22;20067;48.764;9.176;2022-09-24T02:08:47;12.70;91.30
26186;DHT22;20067;48.764;9.176;2022-09-24T02:11:22;12.60;91.30
26186;DHT22;20067;48.764;9.176;2022-09-24T02:16:17;12.50;91.30
26186;DHT22;20067;48.764;9.176;2022-09-24T02:18:47;12.50;91.30
26186;DHT22;20067;48.764;9.176;2022-09-24T02:21:17;12.50;91.30
26186;DHT22;20067;48.764;9.176;2022-09-24T02:23:50;12.50;91.30
26186;DHT22;20067;48.764;9.176;2022-09-24T02:26:16;12.50;91.30
26186;DHT22;20067;48.764;9.176;2022-09-24T02:28:42;12.50;91.30
26186;DHT22;20067;48.764;9.176;2022-09-24T02:31:11;12.60;91.30
26186;DHT22;20067;48.764;9.176;2022-09-24T02:33:41;12.60;91.30
26186;DHT22;20067;48.764;9.176;2022-09-24T02:36:28;12.60;91.30
26186;DHT22;20067;48.764;9.176;2022-09-24T02:38:54;12.70;91.30
26186;DHT22;20067;48.764;9.176;2022-09-24T02:41:21;12.70;91.30
26186;DHT22;20067;48.764;9.176;2022-09-24T02:43:51;12.70;91.30
26186;DHT22;20067;48.764;9.176;2022-09-24T02:46:17;12.60;91.30
26186;DHT22;20067;48.764;9.176;2022-09-24T02:48:43;12.50;91.30
26186;DHT22;20067;48.764;9.176;2022-09-24T02:51:09;12.60;91.30
26186;DHT22;20067;48.764;9.176;2022-09-24T02:53:35;12.50;91.30
26186;DHT22;20067;48.764;9.176;2022-09-24T02:56:01;12.50;91.30
26186;DHT22;20067;48.764;9.176;2022-09-24T02:58:28;12.50;91.30
26186;DHT22;20067;48.764;9.176;2022-09-24T03:00:56;12.60;91.30
26186;DHT22;20067;48.764;9.176;2022-09-24T03:03:22;12.60;91.30
26186;DHT22;20067;48.764;9.176;2022-09-24T03:05:51;12.70;91.30
26186;DHT22;20067;48.764;9.176;2022-09-24T03:08:20;12.70;91.30
26186;DHT22;20067;48.764;9.176;2022-09-24T03:10:46;12.80;91.30
26186;DHT22;20067;48.764;9.176;2022-09-24T03:13:12;12.80;91.30
26186;DHT22;20067;48.764;9.176;2022-09-24T03:15:38;12.80;91.30
26186;DHT22;20067;48.764;9.176;2022-09-24T03:18:04;12.80;91.30
26186;DHT22;20067;48.764;9.176;2022-09-24T03:20:29;12.80;91.30
26186;DHT22;20067;48.764;9.176;2022-09-24T03:22:55;12.70;91.30
26186;DHT22;20067;48.764;9.176;2022-09-24T03:25:21;12.60;91.30
26186;DHT22;20067;48.764;9.176;2022-09-24T03:27:47;12.60;91.30
26186;DHT22;20067;48.764;9.176;2022-09-24T03:30:13;12.60;91.30
26186;DHT22;20067;48.764;9.176;2022-09-24T03:32:57;12.50;91.30
26186;DHT22;20067;48.764;9.176;2022-09-24T03:35:24;12.60;91.30
26186;DHT22;20067;48.764;9.176;2022-09-24T03:37:49;12.60;91.30
26186;DHT22;20067;48.764;9.176;2022-09-24T03:40:15;12.70;91.30
26186;DHT22;20067;48.764;9.176;2022-09-24T03:42:41;12.60;91.30
26186;DHT22;20067;48.764;9.176;2022-09-24T03:45:07;12.60;91.30
26186;DHT22;20067;48.764;9.176;2022-09-24T03:47:32;12.70;91.30
26186;DHT22;20067;48.764;9.176;2022-09-24T03:49:58;12.70;91.30
26186;DHT22;20067;48.764;9.176;2022-09-24T03:52:25;12.70;91.30
26186;DHT22;20067;48.764;9.176;2022-09-24T03:54:51;12.80;91.30
26186;DHT22;20067;48.764;9.176;2022-09-24T03:57:16;12.80;91.30
26186;DHT22;20067;48.764;9.176;2022-09-24T03:59:43;12.90;91.30
26186;DHT22;20067;48.764;9.176;2022-09-24T04:02:10;12.90;91.30
26186;DHT22;20067;48.764;9.176;2022-09-24T04:04:36;12.90;91.30
26186;DHT22;20067;48.764;9.176;2022-09-24T04:07:02;13.00;91.30
26186;DHT22;20067;48.764;9.176;2022-09-24T04:09:27;13.00;91.30
26186;DHT22;20067;48.764;9.176;2022-09-24T04:11:53;12.90;91.30
26186;DHT22;20067;48.764;9.176;2022-09-24T04:14:19;12.90;91.30
26186;DHT22;20067;48.764;9.176;2022-09-24T04:16:45;12.90;91.30
26186;DHT22;20067;48.764;9.176;2022-09-24T04:19:11;12.90;91.30
26186;DHT22;20067;48.764;9.176;2022-09-24T04:21:37;12.90;91.30
26186;DHT22;20067;48.764;9.176;2022-09-24T04:24:03;12.90;91.30
26186;DHT22;20067;48.764;9.176;2022-09-24T04:26:29;12.90;91.30
26186;DHT22;20067;48.764;9.176;2022-09-24T04:28:55;13.00;91.30
26186;DHT22;20067;48.764;9.176;2022-09-24T04:31:24;13.10;91.30
26186;DHT22;20067;48.764;9.176;2022-09-24T04:33:52;13.10;91.30
26186;DHT22;20067;48.764;9.176;2022-09-24T04:36:18;13.10;91.30
26186;DHT22;20067;48.764;9.176;2022-09-24T04:38:43;13.00;91.30
26186;DHT22;20067;48.764;9.176;2022-09-24T04:41:11;12.90;91.30
26186;DHT22;20067;48.764;9.176;2022-09-24T04:43:37;12.90;91.30
26186;DHT22;20067;48.764;9.176;2022-09-24T04:46:03;12.90;91.30
26186;DHT22;20067;48.764;9.176;2022-09-24T04:48:30;12.80;91.30
26186;DHT22;20067;48.764;9.176;2022-09-24T04:50:55;12.80;91.30
26186;DHT22;20067;48.764;9.176;2022-09-24T04:53:22;12.80;91.30
26186;DHT22;20067;48.764;9.176;2022-09-24T04:55:48;12.80;91.30
26186;DHT22;20067;48.764;9.176;2022-09-24T04:58:13;12.90;91.30
26186;DHT22;20067;48.764;9.176;2022-09-24T05:00:39;13.00;91.30
26186;DHT22;20067;48.764;9.176;2022-09-24T05:03:05;13.00;91.30
26186;DHT22;20067;48.764;9.176;2022-09-24T05:05:31;13.00;91.30
26186;DHT22;20067;48.764;9.176;2022-09-24T05:07:57;13.10;91.30
26186;DHT22;20067;48.764;9.176;2022-09-24T05:10:27;13.10;91.30
26186;DHT22;20067;48.764;9.176;2022-09-24T05:12:53;13.10;91.30
26186;DHT22;20067;48.764;9.176;2022-09-24T05:15:20;13.10;91.30
26186;DHT22;20067;48.764;9.176;2022-09-24T05:17:46;13.10;91.30
26186;DHT22;20067;48.764;9.176;2022-09-24T05:20:13;13.10;91.30
26186;DHT22;20067;48.764;9.176;2022-09-24T05:22:44;13.10;91.30
26186;DHT22;20067;48.764;9.176;2022-09-24T05:25:12;13.10;91.30
26186;DHT22;20067;48.764;9.176;2022-09-24T05:27:49;13.10;91.30
26186;DHT22;20067;48.764;9.176;2022-09-24T05:30:16;13.10;91.30
26186;DHT22;20067;48.764;9.176;2022-09-24T05:32:42;13.00;91.30
26186;DHT22;20067;48.764;9.176;2022-09-24T05:35:08;13.00;91.30
26186;DHT22;20067;48.764;9.176;2022-09-24T05:37:36;13.10;91.30
26186;DHT22;20067;48.764;9.176;2022-09-24T05:40:04;13.10;91.30
26186;DHT22;20067;48.764;9.176;2022-09-24T05:42:48;13.10;91.30
26186;DHT22;20067;48.764;9.176;2022-09-24T05:45:14;13.20;91.30
26186;DHT22;20067;48.764;9.176;2022-09-24T05:47:45;13.20;91.30
26186;DHT22;20067;48.764;9.176;2022-09-24T05:50:12;13.20;91.30
26186;DHT22;20067;48.764;9.176;2022-09-24T05:52:39;13.20;91.30
26186;DHT22;20067;48.764;9.176;2022-09-24T05:55:06;13.20;91.30
26186;DHT22;20067;48.764;9.176;2022-09-24T05:57:33;13.20;91.30
26186;DHT22;20067;48.764;9.176;2022-09-24T05:59:58;13.30;91.30
26186;DHT22;20067;48.764;9.176;2022-09-24T06:02:24;13.30;91.30
26186;DHT22;20067;48.764;9.176;2022-09-24T06:04:49;13.40;91.30
26186;DHT22;20067;48.764;9.176;2022-09-24T06:07:15;13.40;91.30
26186;DHT22;20067;48.764;9.176;2022-09-24T06:09:41;13.40;91.30
26186;DHT22;20067;48.764;9.176;2022-09-24T06:12:07;13.40;91.30
26186;DHT22;20067;48.764;9.176;2022-09-24T06:14:32;13.40;91.30
26186;DHT22;20067;48.764;9.176;2022-09-24T06:16:58;13.30;91.30
26186;DHT22;20067;48.764;9.176;2022-09-24T06:19:24;13.20;91.30
26186;DHT22;20067;48.764;9.176;2022-09-24T06:21:50;13.10;91.30
26186;DHT22;20067;48.764;9.176;2022-09-24T06:24:15;13.10;91.30
26186;DHT22;20067;48.764;9.176;2022-09-24T06:26:41;13.10;91.30
26186;DHT22;20067;48.764;9.176;2022-09-24T06:29:06;13.20;91.30
26186;DHT22;20067;48.764;9.176;2022-09-24T06:31:32;13.20;91.30
26186;DHT22;20067;48.764;9.176;2022-09-24T06:33:59;13.30;91.30
26186;DHT22;20067;48.764;9.176;2022-09-24T06:36:25;13.40;91.30
26186;DHT22;20067;48.764;9.176;2022-09-24T06:38:51;13.40;91.30
26186;DHT22;20067;48.764;9.176;2022-09-24T06:44:23;13.60;91.30
26186;DHT22;20067;48.764;9.176;2022-09-24T06:46:52;13.80;91.30
26186;DHT22;20067;48.764;9.176;2022-09-24T06:49:18;13.90;91.30
26186;DHT22;20067;48.764;9.176;2022-09-24T06:51:43;13.90;91.30
26186;DHT22;20067;48.764;9.176;2022-09-24T06:54:10;14.00;91.30
26186;DHT22;20067;48.764;9.176;2022-09-24T06:56:35;14.00;91.30
26186;DHT22;20067;48.764;9.176;2022-09-24T06:59:01;14.00;91.30
26186;DHT22;20067;48.764;9.176;2022-09-24T07:01:26;14.20;91.30
26186;DHT22;20067;48.764;9.176;2022-09-24T07:03:52;14.20;91.30
26186;DHT22;20067;48.764;9.176;2022-09-24T07:06:18;14.30;91.30
26186;DHT22;20067;48.764;9.176;2022-09-24T07:08:43;14.40;91.30
26186;DHT22;20067;48.764;9.176;2022-09-24T07:11:12;14.50;91.30
26186;DHT22;20067;48.764;9.176;2022-09-24T07:13:37;14.60;91.30
26186;DHT22;20067;48.764;9.176;2022-09-24T07:16:03;14.60;91.30
26186;DHT22;20067;48.764;9.176;2022-09-24T07:18:28;14.70;91.30
26186;DHT22;20067;48.764;9.176;2022-09-24T07:20:55;14.80;91.30
26186;DHT22;20067;48.764;9.176;2022-09-24T07:23:21;14.90;91.10
26186;DHT22;20067;48.764;9.176;2022-09-24T07:25:48;14.90;90.50
26186;DHT22;20067;48.764;9.176;2022-09-24T07:28:14;14.90;90.40
26186;DHT22;20067;48.764;9.176;2022-09-24T07:30:40;14.70;91.00
26186;DHT22;20067;48.764;9.176;2022-09-24T07:33:06;14.60;91.30
26186;DHT22;20067;48.764;9.176;2022-09-24T07:35:33;14.70;91.30
26186;DHT22;20067;48.764;9.176;2022-09-24T07:38:03;14.80;91.30
26186;DHT22;20067;48.764;9.176;2022-09-24T07:40:30;14.90;91.30
26186;DHT22;20067;48.764;9.176;2022-09-24T07:42:57;15.10;91.30
26186;DHT22;20067;48.764;9.176;2022-09-24T07:45:24;15.20;91.30
26186;DHT22;20067;48.764;9.176;2022-09-24T07:47:58;15.30;91.30
26186;DHT22;20067;48.764;9.176;2022-09-24T07:50:25;15.40;91.00
26186;DHT22;20067;48.764;9.176;2022-09-24T07:52:52;15.40;90.40
26186;DHT22;20067;48.764;9.176;2022-09-24T07:55:18;15.50;90.00
26186;DHT22;20067;48.764;9.176;2022-09-24T07:57:48;15.60;89.10
26186;DHT22;20067;48.764;9.176;2022-09-24T08:00:15;15.70;88.80
26186;DHT22;20067;48.764;9.176;2022-09-24T08:02:42;15.70;88.80
26186;DHT22;20067;48.764;9.176;2022-09-24T08:05:09;15.80;88.90
26186;DHT22;20067;48.764;9.176;2022-09-24T08:07:34;15.90;88.50
26186;DHT22;20067;48.764;9.176;2022-09-24T08:10:00;15.90;87.70
26186;DHT22;20067;48.764;9.176;2022-09-24T08:12:26;15.90;88.20
26186;DHT22;20067;48.764;9.176;2022-09-24T08:14:52;16.10;88.10
26186;DHT22;20067;48.764;9.176;2022-09-24T08:17:18;16.10;87.60
26186;DHT22;20067;48.764;9.176;2022-09-24T08:19:44;16.20;87.90
26186;DHT22;20067;48.764;9.176;2022-09-24T08:22:11;16.30;87.70
26186;DHT22;20067;48.764;9.176;2022-09-24T08:24:39;16.40;87.70
26186;DHT22;20067;48.764;9.176;2022-09-24T08:27:04;16.50;87.50
26186;DHT22;20067;48.764;9.176;2022-09-24T08:29:30;16.60;86.80
26186;DHT22;20067;48.764;9.176;2022-09-24T08:31:55;16.70;86.30
26186;DHT22;20067;48.764;9.176;2022-09-24T08:34:21;16.70;86.10
26186;DHT22;20067;48.764;9.176;2022-09-24T08:36:47;16.80;85.80
26186;DHT22;20067;48.764;9.176;2022-09-24T08:39:12;16.90;85.70
26186;DHT22;20067;48.764;9.176;2022-09-24T08:41:45;16.80;86.30
26186;DHT22;20067;48.764;9.176;2022-09-24T08:44:29;16.80;86.40
26186;DHT22;20067;48.764;9.176;2022-09-24T08:47:38;16.90;85.60
26186;DHT22;20067;48.764;9.176;2022-09-24T08:50:21;17.10;84.90
26186;DHT22;20067;48.764;9.176;2022-09-24T08:55:33;17.80;83.70
26186;DHT22;20067;48.764;9.176;2022-09-24T09:04:22;19.10;80.40
26186;DHT22;20067;48.764;9.176;2022-09-24T09:12:33;19.10;80.30
26186;DHT22;20067;48.764;9.176;2022-09-24T09:15:16;18.90;80.70
26186;DHT22;20067;48.764;9.176;2022-09-24T09:17:57;18.60;81.10
26186;DHT22;20067;48.764;9.176;2022-09-24T09:20:34;18.40;81.50
26186;DHT22;20067;48.764;9.176;2022-09-24T09:23:10;17.80;83.30
26186;DHT22;20067;48.764;9.176;2022-09-24T09:25:48;17.80;84.40
26186;DHT22;20067;48.764;9.176;2022-09-24T09:28:18;17.60;85.10
26186;DHT22;20067;48.764;9.176;2022-09-24T09:44:26;16.40;90.70
26186;DHT22;20067;48.764;9.176;2022-09-24T09:47:02;16.50;90.70
26186;DHT22;20067;48.764;9.176;2022-09-24T09:49:33;16.60;90.70
26186;DHT22;20067;48.764;9.176;2022-09-24T09:52:01;16.70;90.50
26186;DHT22;20067;48.764;9.176;2022-09-24T09:54:36;16.50;90.90
26186;DHT22;20067;48.764;9.176;2022-09-24T09:57:03;16.50;91.30
26186;DHT22;20067;48.764;9.176;2022-09-24T09:59:30;16.50;91.30
26186;DHT22;20067;48.764;9.176;2022-09-24T10:01:58;16.50;91.30
26186;DHT22;20067;48.764;9.176;2022-09-24T10:07:05;16.70;91.30
26186;DHT22;20067;48.764;9.176;2022-09-24T10:09:31;16.80;91.20
26186;DHT22;20067;48.764;9.176;2022-09-24T10:12:17;16.80;91.20
26186;DHT22;20067;48.764;9.176;2022-09-24T10:14:43;16.80;91.30
26186;DHT22;20067;48.764;9.176;2022-09-24T10:17:13;16.80;91.30
26186;DHT22;20067;48.764;9.176;2022-09-24T10:19:42;16.70;91.30
26186;DHT22;20067;48.764;9.176;2022-09-24T10:22:22;16.70;91.30
26186;DHT22;20067;48.764;9.176;2022-09-24T10:24:49;16.80;91.30
26186;DHT22;20067;48.764;9.176;2022-09-24T10:27:42;16.90;91.30
26186;DHT22;20067;48.764;9.176;2022-09-24T10:30:13;17.00;91.30
26186;DHT22;20067;48.764;9.176;2022-09-24T10:33:02;17.10;91.30
26186;DHT22;20067;48.764;9.176;2022-09-24T10:35:34;17.10;91.30
26186;DHT22;20067;48.764;9.176;2022-09-24T10:38:18;17.10;91.20
26186;DHT22;20067;48.764;9.176;2022-09-24T10:40:45;17.00;90.10
26186;DHT22;20067;48.764;9.176;2022-09-24T10:43:21;16.80;90.60
26186;DHT22;20067;48.764;9.176;2022-09-24T10:51:38;16.70;91.10
26186;DHT22;20067;48.764;9.176;2022-09-24T10:54:37;16.80;91.10
26186;DHT22;20067;48.764;9.176;2022-09-24T10:57:25;16.80;90.60
26186;DHT22;20067;48.764;9.176;2022-09-24T11:00:07;16.70;91.30
26186;DHT22;20067;48.764;9.176;2022-09-24T11:02:44;16.60;91.30
26186;DHT22;20067;48.764;9.176;2022-09-24T11:07:51;16.50;91.30
26186;DHT22;20067;48.764;9.176;2022-09-24T11:13:39;16.40;91.30
26186;DHT22;20067;48.764;9.176;2022-09-24T11:16:16;16.40;91.30
26186;DHT22;20067;48.764;9.176;2022-09-24T11:18:50;16.30;91.30
26186;DHT22;20067;48.764;9.176;2022-09-24T11:26:40;16.20;91.30
26186;DHT22;20067;48.764;9.176;2022-09-24T11:29:41;16.20;91.30
26186;DHT22;20067;48.764;9.176;2022-09-24T11:38:07;16.80;91.30
26186;DHT22;20067;48.764;9.176;2022-09-24T11:46:10;17.00;91.30
26186;DHT22;20067;48.764;9.176;2022-09-24T11:48:53;16.90;91.30
26186;DHT22;20067;48.764;9.176;2022-09-24T11:54:32;16.90;91.30
26186;DHT22;20067;48.764;9.176;2022-09-24T11:57:24;16.80;91.30
26186;DHT22;20067;48.764;9.176;2022-09-24T12:00:10;16.70;91.30
26186;DHT22;20067;48.764;9.176;2022-09-24T12:02:39;16.80;91.30
26186;DHT22;20067;48.764;9.176;2022-09-24T12:05:14;16.90;91.30
26186;DHT22;20067;48.764;9.176;2022-09-24T12:07:58;16.90;91.30
26186;DHT22;20067;48.764;9.176;2022-09-24T12:10:37;17.00;91.30
26186;DHT22;20067;48.764;9.176;2022-09-24T12:15:53;17.00;91.30
26186;DHT22;20067;48.764;9.176;2022-09-24T12:18:28;17.00;91.30
26186;DHT22;20067;48.764;9.176;2022-09-24T12:20:59;16.90;91.30
26186;DHT22;20067;48.764;9.176;2022-09-24T12:23:33;17.00;91.30
26186;DHT22;20067;48.764;9.176;2022-09-24T12:26:04;17.00;91.30
26186;DHT22;20067;48.764;9.176;2022-09-24T12:28:41;17.00;91.30
26186;DHT22;20067;48.764;9.176;2022-09-24T12:31:28;17.00;91.30
26186;DHT22;20067;48.764;9.176;2022-09-24T12:34:28;17.00;91.30
26186;DHT22;20067;48.764;9.176;2022-09-24T12:37:01;17.00;91.30
26186;DHT22;20067;48.764;9.176;2022-09-24T12:39:32;17.00;91.30
26186;DHT22;20067;48.764;9.176;2022-09-24T12:42:06;16.90;91.30
26186;DHT22;20067;48.764;9.176;2022-09-24T12:44:53;16.90;91.30
26186;DHT22;20067;48.764;9.176;2022-09-24T12:47:24;16.90;91.30
26186;DHT22;20067;48.764;9.176;2022-09-24T12:49:59;16.90;91.30
26186;DHT22;20067;48.764;9.176;2022-09-24T12:52:35;17.00;91.30
26186;DHT22;20067;48.764;9.176;2022-09-24T12:55:04;17.10;91.30
26186;DHT22;20067;48.764;9.176;2022-09-24T12:57:40;17.10;91.30
26186;DHT22;20067;48.764;9.176;2022-09-24T13:00:42;17.40;91.30
26186;DHT22;20067;48.764;9.176;2022-09-24T13:03:35;17.80;91.30
26186;DHT22;20067;48.764;9.176;2022-09-24T13:06:03;18.40;91.30
26186;DHT22;20067;48.764;9.176;2022-09-24T13:08:37;18.70;91.30
26186;DHT22;20067;48.764;9.176;2022-09-24T13:11:42;18.80;91.00
26186;DHT22;20067;48.764;9.176;2022-09-24T13:16:42;18.80;90.50
26186;DHT22;20067;48.764;9.176;2022-09-24T13:19:41;18.80;90.30
26186;DHT22;20067;48.764;9.176;2022-09-24T13:22:26;18.70;90.90
26186;DHT22;20067;48.764;9.176;2022-09-24T13:30:33;18.60;90.30
26186;DHT22;20067;48.764;9.176;2022-09-24T13:38:55;18.30;91.30
26186;DHT22;20067;48.764;9.176;2022-09-24T13:41:35;17.90;91.30
26186;DHT22;20067;48.764;9.176;2022-09-24T13:44:41;17.60;91.30
26186;DHT22;20067;48.764;9.176;2022-09-24T13:47:29;17.30;91.30
26186;DHT22;20067;48.764;9.176;2022-09-24T13:50:11;17.00;91.30
26186;DHT22;20067;48.764;9.176;2022-09-24T13:55:28;16.70;91.30
26186;DHT22;20067;48.764;9.176;2022-09-24T13:57:55;16.70;91.30
26186;DHT22;20067;48.764;9.176;2022-09-24T14:00:26;16.80;91.30
26186;DHT22;20067;48.764;9.176;2022-09-24T14:03:02;16.80;91.30
26186;DHT22;20067;48.764;9.176;2022-09-24T14:05:33;16.90;91.30
26186;DHT22;20067;48.764;9.176;2022-09-24T14:10:31;17.10;91.30
26186;DHT22;20067;48.764;9.176;2022-09-24T14:13:16;17.00;91.30
26186;DHT22;20067;48.764;9.176;2022-09-24T14:18:18;17.50;91.30
26186;DHT22;20067;48.764;9.176;2022-09-24T14:20:44;17.50;91.30
26186;DHT22;20067;48.764;9.176;2022-09-24T14:23:18;17.50;91.30
26186;DHT22;20067;48.764;9.176;2022-09-24T14:25:47;17.30;91.30
26186;DHT22;20067;48.764;9.176;2022-09-24T14:28:14;17.40;91.30
26186;DHT22;20067;48.764;9.176;2022-09-24T14:30:54;17.40;91.30
26186;DHT22;20067;48.764;9.176;2022-09-24T14:33:24;17.20;91.30
26186;DHT22;20067;48.764;9.176;2022-09-24T14:35:52;17.00;91.30
26186;DHT22;20067;48.764;9.176;2022-09-24T14:38:31;17.10;91.30
26186;DHT22;20067;48.764;9.176;2022-09-24T14:41:04;17.10;91.30
26186;DHT22;20067;48.764;9.176;2022-09-24T14:43:58;17.10;91.30
26186;DHT22;20067;48.764;9.176;2022-09-24T14:46:27;17.20;91.30
26186;DHT22;20067;48.764;9.176;2022-09-24T14:51:30;17.40;91.30
26186;DHT22;20067;48.764;9.176;2022-09-24T14:54:02;17.10;91.30
26186;DHT22;20067;48.764;9.176;2022-09-24T14:56:33;16.90;91.30
26186;DHT22;20067;48.764;9.176;2022-09-24T14:58:59;16.80;91.30
26186;DHT22;20067;48.764;9.176;2022-09-24T15:01:30;16.60;91.30
26186;DHT22;20067;48.764;9.176;2022-09-24T15:03:59;16.60;91.30
26186;DHT22;20067;48.764;9.176;2022-09-24T15:06:29;16.70;91.30
26186;DHT22;20067;48.764;9.176;2022-09-24T15:11:27;16.90;91.30
26186;DHT22;20067;48.764;9.176;2022-09-24T15:14:11;17.10;91.30
26186;DHT22;20067;48.764;9.176;2022-09-24T15:16:37;17.20;91.30
26186;DHT22;20067;48.764;9.176;2022-09-24T15:21:33;17.40;91.30
26186;DHT22;20067;48.764;9.176;2022-09-24T15:23:58;17.50;91.30
26186;DHT22;20067;48.764;9.176;2022-09-24T15:26:29;17.40;91.30
26186;DHT22;20067;48.764;9.176;2022-09-24T15:29:01;17.30;91.30
26186;DHT22;20067;48.764;9.176;2022-09-24T15:31:28;17.10;91.30
26186;DHT22;20067;48.764;9.176;2022-09-24T15:33:54;17.00;91.30
26186;DHT22;20067;48.764;9.176;2022-09-24T15:36:20;17.00;91.30
26186;DHT22;20067;48.764;9.176;2022-09-24T15:38:47;16.90;91.30
26186;DHT22;20067;48.764;9.176;2022-09-24T15:41:14;17.00;91.30
26186;DHT22;20067;48.764;9.176;2022-09-24T15:43:39;17.00;91.30
26186;DHT22;20067;48.764;9.176;2022-09-24T15:46:05;17.00;91.30
26186;DHT22;20067;48.764;9.176;2022-09-24T15:48:31;17.00;91.30
26186;DHT22;20067;48.764;9.176;2022-09-24T15:50:56;17.00;91.30
26186;DHT22;20067;48.764;9.176;2022-09-24T15:53:26;16.90;91.30
26186;DHT22;20067;48.764;9.176;2022-09-24T15:55:58;17.10;91.30
26186;DHT22;20067;48.764;9.176;2022-09-24T15:58:25;17.30;91.30
26186;DHT22;20067;48.764;9.176;2022-09-24T16:00:51;17.40;91.30
26186;DHT22;20067;48.764;9.176;2022-09-24T16:03:26;17.30;91.30
26186;DHT22;20067;48.764;9.176;2022-09-24T16:05:53;17.20;91.30
26186;DHT22;20067;48.764;9.176;2022-09-24T16:08:18;17.10;91.30
26186;DHT22;20067;48.764;9.176;2022-09-24T16:10:44;17.00;91.30
26186;DHT22;20067;48.764;9.176;2022-09-24T16:13:12;16.80;91.30
26186;DHT22;20067;48.764;9.176;2022-09-24T16:15:38;16.70;91.30
26186;DHT22;20067;48.764;9.176;2022-09-24T16:18:04;16.70;91.30
26186;DHT22;20067;48.764;9.176;2022-09-24T16:20:30;16.70;91.30
26186;DHT22;20067;48.764;9.176;2022-09-24T16:22:56;16.70;91.30
26186;DHT22;20067;48.764;9.176;2022-09-24T16:25:22;16.60;91.30
26186;DHT22;20067;48.764;9.176;2022-09-24T16:27:48;16.50;91.30
26186;DHT22;20067;48.764;9.176;2022-09-24T16:30:15;16.50;91.30
26186;DHT22;20067;48.764;9.176;2022-09-24T16:32:41;16.30;91.30
26186;DHT22;20067;48.764;9.176;2022-09-24T16:35:07;16.40;91.30
26186;DHT22;20067;48.764;9.176;2022-09-24T16:37:35;16.40;91.30
26186;DHT22;20067;48.764;9.176;2022-09-24T16:40:01;16.50;91.30
26186;DHT22;20067;48.764;9.176;2022-09-24T16:42:27;16.30;91.30
26186;DHT22;20067;48.764;9.176;2022-09-24T16:44:53;16.20;91.30
26186;DHT22;20067;48.764;9.176;2022-09-24T16:47:18;16.20;91.30
26186;DHT22;20067;48.764;9.176;2022-09-24T16:49:45;16.10;91.30
26186;DHT22;20067;48.764;9.176;2022-09-24T16:52:11;16.00;91.30
26186;DHT22;20067;48.764;9.176;2022-09-24T16:54:37;15.80;91.30
26186;DHT22;20067;48.764;9.176;2022-09-24T16:57:03;15.90;91.30
26186;DHT22;20067;48.764;9.176;2022-09-24T16:59:30;15.90;91.30
26186;DHT22;20067;48.764;9.176;2022-09-24T17:01:56;16.00;91.30
26186;DHT22;20067;48.764;9.176;2022-09-24T17:04:21;15.90;91.30
26186;DHT22;20067;48.764;9.176;2022-09-24T17:06:47;15.70;91.30
26186;DHT22;20067;48.764;9.176;2022-09-24T17:09:13;15.70;91.30
26186;DHT22;20067;48.764;9.176;2022-09-24T17:11:57;15.60;91.30
26186;DHT22;20067;48.764;9.176;2022-09-24T17:14:23;15.50;91.30
26186;DHT22;20067;48.764;9.176;2022-09-24T17:16:48;15.40;91.30
26186;DHT22;20067;48.764;9.176;2022-09-24T17:19:14;15.40;91.30
26186;DHT22;20067;48.764;9.176;2022-09-24T17:21:42;15.30;91.30
26186;DHT22;20067;48.764;9.176;2022-09-24T17:24:10;15.30;91.30
26186;DHT22;20067;48.764;9.176;2022-09-24T17:26:37;15.20;91.30
26186;DHT22;20067;48.764;9.176;2022-09-24T17:29:03;15.20;91.30
26186;DHT22;20067;48.764;9.176;2022-09-24T17:31:29;15.20;91.30
26186;DHT22;20067;48.764;9.176;2022-09-24T17:34:00;15.20;91.30
26186;DHT22;20067;48.764;9.176;2022-09-24T17:36:28;15.20;91.30
26186;DHT22;20067;48.764;9.176;2022-09-24T17:38:54;15.20;91.30
26186;DHT22;20067;48.764;9.176;2022-09-24T17:41:21;15.20;91.30
26186;DHT22;20067;48.764;9.176;2022-09-24T17:43:48;15.20;91.30
26186;DHT22;20067;48.764;9.176;2022-09-24T17:46:20;15.20;91.30
26186;DHT22;20067;48.764;9.176;2022-09-24T17:48:50;15.20;91.30